Time;durP1;ratioP1;P1;durP2;ratioP2;P2;SDS_P1;SDS_P2;PMS_P1;PMS_P2;Temp;Humidity;BMP_temperature;BMP_pressure;BME280_temperature;BME280_humidity;BME280_pressure;Samples;Min_cycle;Max_cycle;Signal;HPM_P1;HPM_P2
2022/11/11 00:01:09;;;;;;;3.70;0.30;;;;;;;8.80;100.00;102262.59;4986109;28;20022;-62
2022/11/11 00:03:34;;;;;;;0.90;0.40;;;;;;;8.63;100.00;102260.97;4989140;28;20064;-62
2022/11/11 00:06:02;;;;;;;2.70;0.43;;;;;;;8.58;100.00;102256.97;4985321;28;20058;-62
2022/11/11 00:08:27;;;;;;;1.00;0.40;;;;;;;8.54;100.00;102261.50;4988585;28;20046;-62
2022/11/11 00:10:52;;;;;;;2.55;0.60;;;;;;;8.48;100.00;102266.22;4990083;28;20405;-62
2022/11/11 00:13:18;;;;;;;3.05;1.05;;;;;;;8.43;100.00;102263.88;4988135;28;20133;-61
2022/11/11 00:15:43;;;;;;;5.43;0.77;;;;;;;8.35;100.00;102265.22;4988954;28;20108;-62
2022/11/11 00:26:27;;;;;;;1.90;0.90;;;;;;;8.06;100.00;102261.63;4988095;28;20041;-62
2022/11/11 00:28:53;;;;;;;2.88;0.57;;;;;;;8.15;100.00;102264.53;4988967;28;20030;-62
2022/11/11 00:31:18;;;;;;;5.65;0.50;;;;;;;8.45;100.00;102266.41;4987059;28;20362;-62
2022/11/11 00:33:43;;;;;;;1.27;0.40;;;;;;;8.57;100.00;102271.72;4989747;28;20030;-62
2022/11/11 00:36:09;;;;;;;0.80;0.50;;;;;;;8.73;100.00;102271.66;4987764;28;20457;-62
2022/11/11 00:38:47;;;;;;;0.47;0.20;;;;;;;8.84;100.00;102279.69;4990296;28;20037;-62
2022/11/11 00:41:18;;;;;;;3.28;0.40;;;;;;;8.86;100.00;102277.84;4991520;28;20034;-62
2022/11/11 00:43:45;;;;;;;4.45;0.30;;;;;;;8.79;100.00;102281.72;4987002;28;20100;-62
2022/11/11 00:51:40;;;;;;;0.70;0.20;;;;;;;8.78;100.00;102290.44;4990042;28;20117;-62
2022/11/11 00:54:06;;;;;;;0.50;0.35;;;;;;;8.75;100.00;102293.22;4993594;28;20448;-62
2022/11/11 00:56:32;;;;;;;1.15;0.35;;;;;;;8.64;100.00;102299.00;4992439;28;20130;-62
2022/11/11 00:58:58;;;;;;;0.52;0.20;;;;;;;8.55;100.00;102296.09;4990770;28;20519;-62
2022/11/11 01:01:23;;;;;;;5.75;0.40;;;;;;;8.50;100.00;102298.16;4988374;28;20327;-62
2022/11/11 01:03:49;;;;;;;0.75;0.40;;;;;;;8.46;100.00;102307.88;4991569;28;20048;-62
2022/11/11 01:06:14;;;;;;;2.47;0.40;;;;;;;8.40;100.00;102304.78;4993919;28;20375;-62
2022/11/11 01:08:41;;;;;;;2.35;0.50;;;;;;;8.26;100.00;102295.97;4992165;28;20429;-63
2022/11/11 01:11:15;;;;;;;2.08;0.40;;;;;;;8.22;100.00;102294.44;4990969;28;20616;-62
2022/11/11 01:13:41;;;;;;;0.95;0.50;;;;;;;8.03;100.00;102283.41;4991610;28;20034;-63
2022/11/11 01:16:11;;;;;;;3.88;0.50;;;;;;;7.97;100.00;102286.34;4989110;28;20405;-62
2022/11/11 01:18:36;;;;;;;1.55;0.47;;;;;;;7.88;100.00;102286.84;4986392;28;20093;-62
2022/11/11 01:21:12;;;;;;;2.88;0.70;;;;;;;7.83;100.00;102279.31;4990432;28;20449;-63
2022/11/11 01:23:39;;;;;;;3.17;0.80;;;;;;;7.78;100.00;102289.09;4993832;28;20109;-62
2022/11/11 01:26:10;;;;;;;4.15;1.75;;;;;;;7.81;100.00;102286.34;4989971;28;20539;-62
2022/11/11 01:28:35;;;;;;;2.33;0.95;;;;;;;7.77;100.00;102271.00;4991708;28;20026;-62
2022/11/11 01:31:03;;;;;;;4.18;1.38;;;;;;;7.74;100.00;102276.34;4989089;28;20404;-62
2022/11/11 01:33:28;;;;;;;2.60;1.25;;;;;;;7.71;100.00;102285.16;4995363;28;20032;-62
2022/11/11 01:35:54;;;;;;;6.07;1.45;;;;;;;7.63;100.00;102277.75;4989609;28;20022;-62
2022/11/11 01:38:19;;;;;;;3.50;1.58;;;;;;;7.61;100.00;102269.22;4992476;28;20069;-62
2022/11/11 01:40:47;;;;;;;2.45;1.17;;;;;;;7.57;100.00;102257.34;4990050;28;20077;-62
2022/11/11 01:43:20;;;;;;;4.70;1.63;;;;;;;7.57;100.00;102256.50;4990856;28;20135;-62
2022/11/11 01:46:02;;;;;;;2.13;1.35;;;;;;;7.52;100.00;102250.75;4990492;28;20113;-62
2022/11/11 01:51:33;;;;;;;2.88;1.00;;;;;;;7.49;100.00;102258.69;4995286;28;20116;-62
2022/11/11 01:54:01;;;;;;;2.25;1.10;;;;;;;7.49;100.00;102256.94;4989797;28;20130;-62
2022/11/11 01:56:27;;;;;;;2.67;1.50;;;;;;;7.47;100.00;102258.75;4989986;28;20049;-62
2022/11/11 01:58:57;;;;;;;2.78;0.95;;;;;;;7.46;100.00;102254.50;4988967;28;20040;-62
2022/11/11 02:01:22;;;;;;;3.20;1.10;;;;;;;7.49;100.00;102258.69;4989260;28;20034;-62
2022/11/11 02:06:35;;;;;;;;;;;;;;;7.44;100.00;102260.69;4991444;28;20041;-62
2022/11/11 02:09:01;;;;;;;;;;;;;;;7.40;100.00;102260.00;4993071;28;19929;-63
2022/11/11 02:16:56;;;;;;;4.32;0.50;;;;;;;7.43;100.00;102252.06;4992080;28;20040;-62
2022/11/11 02:19:45;;;;;;;1.85;0.50;;;;;;;7.54;100.00;102238.53;4990086;28;20030;-62
2022/11/11 02:22:15;;;;;;;2.70;0.43;;;;;;;7.53;100.00;102240.28;4990014;28;20425;-62
2022/11/11 02:24:42;;;;;;;0.90;0.40;;;;;;;7.65;100.00;102239.59;4989602;28;20027;-62
2022/11/11 02:27:13;;;;;;;2.85;0.60;;;;;;;7.75;100.00;102249.50;4987633;28;20038;-62
2022/11/11 02:29:40;;;;;;;2.50;0.73;;;;;;;7.78;100.00;102244.97;4989226;28;20113;-63
2022/11/11 02:32:05;;;;;;;5.03;0.60;;;;;;;7.70;100.00;102238.53;4992181;28;20050;-62
2022/11/11 02:34:32;;;;;;;1.65;0.60;;;;;;;7.66;100.00;102240.44;4990960;28;20145;-62
2022/11/11 02:36:58;;;;;;;3.40;0.40;;;;;;;7.57;100.00;102241.78;4989573;28;20030;-62
2022/11/11 02:39:25;;;;;;;2.35;0.50;;;;;;;7.59;100.00;102245.13;4996247;28;20524;-63
2022/11/11 02:41:56;;;;;;;1.77;0.50;;;;;;;7.55;100.00;102241.03;4991095;28;20034;-62
2022/11/11 02:44:25;;;;;;;0.90;0.50;;;;;;;7.54;100.00;102233.34;4987116;28;20046;-62
2022/11/11 02:46:51;;;;;;;2.00;0.30;;;;;;;7.51;100.00;102239.53;4988307;28;20040;-62
2022/11/11 02:49:17;;;;;;;1.35;0.80;;;;;;;7.52;100.00;102240.38;4991982;28;20030;-62
2022/11/11 02:51:42;;;;;;;2.92;0.43;;;;;;;7.45;100.00;102239.84;4995744;28;20385;-62
2022/11/11 02:54:08;;;;;;;1.27;0.70;;;;;;;7.45;100.00;102249.38;4991413;28;20138;-62
2022/11/11 02:59:17;;;;;;;1.15;0.40;;;;;;;7.41;100.00;102251.31;4991091;28;20048;-62
2022/11/11 03:01:43;;;;;;;1.38;0.50;;;;;;;7.30;100.00;102256.22;4988632;28;20116;-62
2022/11/11 03:04:08;;;;;;;1.85;0.40;;;;;;;7.30;100.00;102258.81;4988224;28;20510;-62
2022/11/11 03:06:34;;;;;;;1.25;0.50;;;;;;;7.26;100.00;102259.88;4991358;28;20113;-63
2022/11/11 03:08:59;;;;;;;1.42;0.50;;;;;;;7.25;100.00;102258.19;4986699;28;20046;-62
2022/11/11 03:11:27;;;;;;;1.35;0.38;;;;;;;7.28;100.00;102255.44;5003589;28;20075;-63
2022/11/11 03:13:54;;;;;;;1.23;0.47;;;;;;;7.28;100.00;102264.06;4989082;28;20121;-62
2022/11/11 03:19:04;;;;;;;2.25;0.63;;;;;;;7.36;100.00;102257.66;4986980;28;20081;-62
2022/11/11 03:21:29;;;;;;;1.70;0.50;;;;;;;7.37;100.00;102260.16;4989467;28;20038;-62
2022/11/11 03:23:55;;;;;;;1.38;0.40;;;;;;;7.38;100.00;102264.44;4989084;28;20100;-62
2022/11/11 03:26:20;;;;;;;0.93;0.50;;;;;;;7.39;100.00;102273.88;4989307;28;20041;-63
2022/11/11 03:28:45;;;;;;;1.95;0.43;;;;;;;7.37;100.00;102274.88;4991568;28;20373;-62
2022/11/11 03:31:11;;;;;;;1.30;0.50;;;;;;;7.34;100.00;102278.47;4987435;28;20492;-62
2022/11/11 03:33:36;;;;;;;1.15;0.30;;;;;;;7.32;100.00;102277.72;4993146;28;20044;-63
2022/11/11 03:36:02;;;;;;;2.63;0.43;;;;;;;7.28;100.00;102278.78;4989826;28;20104;-62
2022/11/11 03:38:27;;;;;;;2.58;0.40;;;;;;;7.27;100.00;102283.13;4992094;28;20026;-62
2022/11/11 03:40:57;;;;;;;1.98;0.45;;;;;;;7.31;100.00;102286.41;4991401;28;20034;-62
2022/11/11 03:43:25;;;;;;;2.78;0.50;;;;;;;7.33;100.00;102284.56;4988275;28;20026;-62
2022/11/11 03:45:53;;;;;;;3.20;0.40;;;;;;;7.33;100.00;102281.97;4989765;28;20050;-62
2022/11/11 03:48:18;;;;;;;1.33;0.40;;;;;;;7.35;100.00;102281.91;4994588;28;20054;-62
2022/11/11 03:50:46;;;;;;;4.32;0.43;;;;;;;7.39;100.00;102286.84;5003215;28;20074;-62
2022/11/11 03:53:13;;;;;;;3.13;0.43;;;;;;;7.39;100.00;102288.59;4990885;28;20035;-62
2022/11/11 03:55:39;;;;;;;2.38;0.40;;;;;;;7.43;100.00;102288.38;4993345;28;20037;-62
2022/11/11 03:58:05;;;;;;;0.80;0.30;;;;;;;7.41;100.00;102295.38;4985404;28;20033;-62
2022/11/11 04:00:31;;;;;;;0.95;0.40;;;;;;;7.62;100.00;102294.25;4986723;28;20043;-62
2022/11/11 04:11:26;;;;;;;1.10;0.30;;;;;;;7.63;100.00;102287.31;4993570;28;20097;-62
2022/11/11 04:16:37;;;;;;;1.55;0.32;;;;;;;7.52;100.00;102277.53;4998298;28;20177;-62
2022/11/11 04:21:47;;;;;;;0.88;0.45;;;;;;;7.49;100.00;102277.69;4986231;28;20041;-62
2022/11/11 04:27:01;;;;;;;4.38;0.52;;;;;;;7.44;100.00;102273.66;4992526;28;20041;-62
2022/11/11 04:29:28;;;;;;;1.20;0.40;;;;;;;7.40;100.00;102278.16;4988772;28;20037;-62
2022/11/11 04:34:48;;;;;;;2.28;0.60;;;;;;;7.42;100.00;102273.72;4991362;28;20121;-62
2022/11/11 04:37:14;;;;;;;0.93;0.40;;;;;;;7.40;100.00;102275.56;5001169;28;20034;-62
2022/11/11 04:42:24;;;;;;;0.75;0.40;;;;;;;7.37;100.00;102269.69;4992274;28;20151;-62
2022/11/11 04:47:34;;;;;;;1.35;0.40;;;;;;;7.27;100.00;102290.06;4994089;28;20108;-62
2022/11/11 04:49:59;;;;;;;0.98;0.50;;;;;;;7.22;100.00;102285.13;4996342;28;20033;-62
2022/11/11 04:52:25;;;;;;;0.77;0.30;;;;;;;7.22;100.00;102284.28;4989760;28;20062;-62
2022/11/11 04:57:39;;;;;;;1.08;0.20;;;;;;;7.36;100.00;102287.00;4991696;28;20045;-62
2022/11/11 05:00:05;;;;;;;0.63;0.30;;;;;;;7.69;100.00;102280.94;4991342;28;20042;-62
2022/11/11 05:05:14;;;;;;;3.45;0.50;;;;;;;7.63;100.00;102293.31;4992143;28;20136;-63
2022/11/11 05:10:24;;;;;;;2.35;0.30;;;;;;;7.47;100.00;102296.84;4990308;28;20100;-62
2022/11/11 05:12:49;;;;;;;0.52;0.20;;;;;;;7.44;100.00;102297.00;4992027;28;20022;-62
2022/11/11 05:21:21;;;;;;;0.90;0.30;;;;;;;7.20;100.00;102304.25;4993718;28;20116;-62
2022/11/11 05:26:23;;;;;;;1.17;0.85;;;;;;;7.12;100.00;102311.59;4992211;28;20076;-62
2022/11/11 05:28:49;;;;;;;2.75;0.70;;;;;;;7.16;100.00;102308.75;4991712;28;20101;-62
2022/11/11 05:31:14;;;;;;;1.70;1.00;;;;;;;7.15;100.00;102306.25;4989453;28;20511;-62
2022/11/11 05:33:40;;;;;;;9.68;1.58;;;;;;;7.11;100.00;102328.06;4993347;28;20030;-62
2022/11/11 05:36:05;;;;;;;3.63;2.15;;;;;;;7.13;100.00;102324.47;4991591;28;20034;-62
2022/11/11 05:38:31;;;;;;;6.68;4.93;;;;;;;7.23;100.00;102330.88;4991502;28;20136;-62
2022/11/11 05:40:56;;;;;;;4.63;3.83;;;;;;;7.31;100.00;102330.47;4991443;28;20112;-62
2022/11/11 05:43:21;;;;;;;4.03;3.47;;;;;;;7.31;100.00;102333.91;4991487;28;20034;-62
2022/11/11 05:45:47;;;;;;;5.68;4.82;;;;;;;7.27;100.00;102341.94;4989166;28;20045;-62
2022/11/11 05:48:12;;;;;;;7.40;4.75;;;;;;;7.24;100.00;102336.91;4989777;28;20034;-62
2022/11/11 05:50:41;;;;;;;5.45;4.72;;;;;;;7.19;100.00;102339.72;4992593;28;20085;-62
2022/11/11 05:53:06;;;;;;;10.52;5.18;;;;;;;7.18;100.00;102351.00;4990475;28;20465;-62
2022/11/11 05:55:32;;;;;;;5.47;4.07;;;;;;;7.15;100.00;102353.75;4986553;28;20034;-63
2022/11/11 05:57:57;;;;;;;4.65;3.45;;;;;;;7.03;100.00;102361.31;4991117;28;20057;-62
2022/11/11 06:00:23;;;;;;;5.93;4.68;;;;;;;7.02;100.00;102362.22;4990551;28;20023;-62
2022/11/11 06:02:48;;;;;;;8.60;5.30;;;;;;;7.04;100.00;102355.22;4991300;28;20045;-62
2022/11/11 06:05:13;;;;;;;4.30;3.53;;;;;;;7.05;100.00;102368.09;4994634;28;20054;-63
2022/11/11 06:07:39;;;;;;;4.15;2.10;;;;;;;7.40;100.00;102361.13;4993776;28;20066;-62
2022/11/11 06:13:04;;;;;;;2.55;0.90;;;;;;;7.96;100.00;102368.56;4993518;28;20110;-62
2022/11/11 06:15:33;;;;;;;3.47;1.20;;;;;;;7.90;100.00;102368.06;4991172;28;20616;-62
2022/11/11 06:18:00;;;;;;;2.50;0.50;;;;;;;8.00;100.00;102369.25;4987798;28;20049;-62
2022/11/11 06:20:26;;;;;;;2.80;0.50;;;;;;;8.15;100.00;102378.78;4992095;28;20088;-62
2022/11/11 06:22:57;;;;;;;5.28;0.60;;;;;;;8.17;100.00;102381.31;4991324;28;20026;-62
2022/11/11 06:28:14;;;;;;;2.13;0.93;;;;;;;8.04;100.00;102375.94;4989334;28;20179;-62
2022/11/11 06:30:40;;;;;;;1.42;0.65;;;;;;;7.95;100.00;102372.09;4992086;28;20042;-63
2022/11/11 06:33:09;;;;;;;1.80;0.90;;;;;;;7.89;100.00;102366.38;4989887;28;20394;-62
2022/11/11 06:35:38;;;;;;;2.83;1.02;;;;;;;7.82;100.00;102359.84;4991802;28;20141;-62
2022/11/11 06:38:05;;;;;;;2.13;1.30;;;;;;;7.77;100.00;102369.59;4989708;28;20120;-62
2022/11/11 06:40:32;;;;;;;2.42;1.60;;;;;;;7.73;100.00;102381.91;4989845;28;20189;-62
2022/11/11 06:42:58;;;;;;;4.28;2.50;;;;;;;7.72;100.00;102379.38;4985709;28;20549;-62
2022/11/11 06:45:24;;;;;;;4.93;2.83;;;;;;;7.75;100.00;102389.59;4990296;28;20038;-63
2022/11/11 06:47:49;;;;;;;4.03;2.13;;;;;;;7.76;100.00;102386.94;4989800;28;20520;-62
2022/11/11 06:50:15;;;;;;;4.43;2.22;;;;;;;7.77;100.00;102386.00;4989157;28;20035;-63
2022/11/11 06:52:40;;;;;;;6.90;3.60;;;;;;;7.81;100.00;102395.31;4990669;28;20099;-63
2022/11/11 06:55:06;;;;;;;6.07;3.00;;;;;;;7.81;100.00;102399.69;4989430;28;20138;-62
2022/11/11 06:57:32;;;;;;;6.05;3.75;;;;;;;7.83;100.00;102403.03;4989747;28;20026;-62
2022/11/11 06:59:57;;;;;;;5.75;4.13;;;;;;;7.86;100.00;102401.13;5004476;28;20100;-62
2022/11/11 07:02:23;;;;;;;5.80;4.05;;;;;;;7.89;100.00;102402.72;4991593;28;20030;-62
2022/11/11 07:04:48;;;;;;;3.67;2.13;;;;;;;8.05;100.00;102402.72;4991541;28;20081;-63
2022/11/11 07:07:14;;;;;;;6.32;1.92;;;;;;;8.28;100.00;102404.94;4987929;28;20443;-63
2022/11/11 07:09:39;;;;;;;3.90;1.10;;;;;;;8.52;100.00;102402.78;4990851;28;20142;-63
2022/11/11 07:12:06;;;;;;;5.75;1.08;;;;;;;8.75;100.00;102420.56;4987738;28;20073;-64
2022/11/11 07:14:31;;;;;;;2.78;1.23;;;;;;;8.89;100.00;102412.84;4990137;28;20026;-63
2022/11/11 07:16:57;;;;;;;2.55;1.10;;;;;;;9.02;100.00;102425.13;4993864;28;20083;-64
2022/11/11 07:19:22;;;;;;;2.30;1.30;;;;;;;9.08;100.00;102429.97;4987779;28;20034;-64
2022/11/11 07:21:48;;;;;;;4.50;2.00;;;;;;;9.11;100.00;102424.59;4988387;28;20041;-64
2022/11/11 07:24:13;;;;;;;3.67;1.20;;;;;;;9.15;100.00;102424.34;4995284;28;20035;-64
2022/11/11 07:26:39;;;;;;;3.22;1.48;;;;;;;9.19;100.00;102425.00;4990911;28;20088;-64
2022/11/11 07:29:04;;;;;;;3.60;0.60;;;;;;;9.22;100.00;102430.03;4989981;28;20457;-64
2022/11/11 07:31:30;;;;;;;2.55;0.95;;;;;;;9.40;100.00;102430.75;4989246;28;20041;-64
2022/11/11 07:33:55;;;;;;;4.15;1.08;;;;;;;9.49;100.00;102441.44;4990415;28;20045;-64
2022/11/11 07:36:21;;;;;;;2.70;1.38;;;;;;;9.52;100.00;102441.25;4987879;28;20030;-64
2022/11/11 07:38:46;;;;;;;2.65;1.00;;;;;;;9.53;100.00;102435.13;4989321;28;20039;-63
2022/11/11 07:41:11;;;;;;;5.63;1.48;;;;;;;9.71;100.00;102438.41;4986167;28;20027;-64
2022/11/11 07:43:37;;;;;;;4.95;1.17;;;;;;;9.91;100.00;102432.03;4986065;28;20031;-64
2022/11/11 07:46:02;;;;;;;1.58;0.50;;;;;;;9.98;100.00;102430.69;4985955;28;20458;-65
2022/11/11 07:48:28;;;;;;;2.75;0.30;;;;;;;10.05;100.00;102437.22;4984194;28;20037;-64
2022/11/11 07:50:53;;;;;;;1.60;0.40;;;;;;;10.05;100.00;102436.38;4988546;28;20139;-64
2022/11/11 07:53:19;;;;;;;0.98;0.45;;;;;;;10.07;100.00;102431.91;4989477;28;20026;-64
2022/11/11 07:55:45;;;;;;;2.70;0.40;;;;;;;10.11;100.00;102436.84;4984089;28;20393;-65
2022/11/11 07:58:11;;;;;;;0.88;0.30;;;;;;;10.02;100.00;102432.19;4991121;28;20061;-64
2022/11/11 08:00:37;;;;;;;3.72;0.30;;;;;;;9.98;100.00;102441.09;4987087;28;20104;-64
2022/11/11 08:03:02;;;;;;;3.35;0.30;;;;;;;9.95;100.00;102438.69;4985025;28;20022;-63
2022/11/11 08:05:27;;;;;;;2.15;0.30;;;;;;;9.92;100.00;102441.50;4989583;28;20033;-63
2022/11/11 08:07:53;;;;;;;2.47;0.30;;;;;;;9.87;100.00;102444.38;4985775;28;20429;-63
2022/11/11 08:10:18;;;;;;;3.42;0.40;;;;;;;9.84;100.00;102446.34;4985960;28;20037;-64
2022/11/11 08:15:28;;;;;;;1.95;0.40;;;;;;;9.88;100.00;102447.81;4987662;28;20100;-63
2022/11/11 08:17:53;;;;;;;1.17;0.40;;;;;;;9.89;100.00;102450.34;4988406;28;20117;-64
2022/11/11 08:20:19;;;;;;;0.85;0.40;;;;;;;9.87;100.00;102459.16;4982446;28;20022;-63
2022/11/11 08:22:44;;;;;;;1.77;0.40;;;;;;;9.88;100.00;102468.66;4984498;28;20042;-62
2022/11/11 08:25:13;;;;;;;0.73;0.40;;;;;;;9.90;100.00;102465.03;4988980;28;20026;-63
2022/11/11 08:27:39;;;;;;;1.42;0.30;;;;;;;9.90;100.00;102467.63;4987308;28;20038;-63
2022/11/11 08:30:06;;;;;;;1.52;0.40;;;;;;;9.98;100.00;102464.53;4989630;28;20045;-63
2022/11/11 08:32:32;;;;;;;3.72;0.47;;;;;;;10.08;100.00;102460.47;4991666;28;20041;-63
2022/11/11 08:34:57;;;;;;;5.20;0.98;;;;;;;10.17;100.00;102466.88;4990946;28;20423;-63
2022/11/11 08:37:22;;;;;;;9.05;2.25;;;;;;;10.26;100.00;102475.03;4980352;28;20018;-63
2022/11/11 08:39:48;;;;;;;9.65;2.53;;;;;;;10.39;100.00;102469.91;4987876;28;20050;-63
2022/11/11 08:42:13;;;;;;;7.78;2.85;;;;;;;10.53;100.00;102474.22;4990368;28;20046;-63
2022/11/11 08:44:39;;;;;;;10.18;3.08;;;;;;;10.66;100.00;102472.53;4990731;28;20049;-63
2022/11/11 08:47:04;;;;;;;6.82;2.65;;;;;;;10.77;100.00;102479.69;4990214;28;20126;-63
2022/11/11 08:49:30;;;;;;;4.85;1.05;;;;;;;10.81;100.00;102473.34;4990998;28;20121;-63
2022/11/11 08:51:55;;;;;;;4.53;0.40;;;;;;;10.94;100.00;102479.44;4989115;28;20718;-63
2022/11/11 08:54:20;;;;;;;3.38;0.63;;;;;;;11.01;100.00;102480.72;4987116;28;20031;-63
2022/11/11 08:56:46;;;;;;;12.15;5.63;;;;;;;11.06;100.00;102485.66;4988626;28;20031;-63
2022/11/11 08:59:11;;;;;;;12.93;7.30;;;;;;;11.16;100.00;102491.94;4986678;28;20030;-63
2022/11/11 09:01:37;;;;;;;10.07;5.43;;;;;;;11.29;100.00;102490.22;4992705;28;20507;-63
2022/11/11 09:04:03;;;;;;;4.35;2.17;;;;;;;11.40;100.00;102479.88;4993456;28;20034;-63
2022/11/11 09:06:28;;;;;;;2.85;0.50;;;;;;;11.43;100.00;102486.69;4990837;28;20065;-63
2022/11/11 09:08:54;;;;;;;2.35;0.80;;;;;;;11.42;100.00;102485.84;4990845;28;20141;-63
2022/11/11 09:11:19;;;;;;;1.83;0.50;;;;;;;11.40;100.00;102490.34;4990959;28;20026;-63
2022/11/11 09:13:48;;;;;;;1.35;0.40;;;;;;;11.43;100.00;102484.06;4987037;28;20039;-63
2022/11/11 09:16:15;;;;;;;0.98;0.25;;;;;;;11.43;100.00;102487.53;4988594;28;20054;-64
2022/11/11 09:18:40;;;;;;;1.48;0.30;;;;;;;11.48;100.00;102490.66;4988310;28;20117;-63
2022/11/11 09:21:06;;;;;;;1.27;0.20;;;;;;;11.52;100.00;102486.09;4988139;28;20184;-63
2022/11/11 09:23:31;;;;;;;1.88;0.40;;;;;;;11.53;100.00;102485.97;4988115;28;20084;-64
2022/11/11 09:26:02;;;;;;;1.33;0.30;;;;;;;11.57;100.00;102479.63;4991115;28;20027;-64
2022/11/11 09:28:29;;;;;;;1.15;0.25;;;;;;;11.59;100.00;102488.19;4991275;28;20026;-64
2022/11/11 09:30:54;;;;;;;1.05;0.40;;;;;;;11.69;100.00;102479.75;4991804;28;20038;-64
2022/11/11 09:33:20;;;;;;;4.90;0.40;;;;;;;11.72;100.00;102479.53;4988885;28;20027;-63
2022/11/11 09:35:45;;;;;;;1.52;0.40;;;;;;;11.80;100.00;102487.75;4993290;28;20044;-63
2022/11/11 09:38:11;;;;;;;1.60;0.40;;;;;;;11.83;100.00;102501.41;4989226;28;20402;-63
2022/11/11 09:40:58;;;;;;;3.50;0.40;;;;;;;11.82;100.00;102497.09;4987853;28;20034;-63
2022/11/11 09:43:46;;;;;;;1.65;0.50;;;;;;;11.87;100.00;102502.03;4992462;28;20026;-64
2022/11/11 09:46:27;;;;;;;4.65;0.40;;;;;;;11.96;100.00;102502.25;4992621;28;20026;-64
2022/11/11 09:49:14;;;;;;;4.80;0.50;;;;;;;12.08;100.00;102505.81;4993357;28;20053;-63
2022/11/11 09:52:06;;;;;;;1.38;0.40;;;;;;;12.00;100.00;102508.09;4988036;28;20096;-63
2022/11/11 09:54:42;;;;;;;1.17;0.20;;;;;;;12.03;100.00;102505.28;4993311;28;20034;-64
2022/11/11 09:57:38;;;;;;;1.52;0.35;;;;;;;11.99;100.00;102495.97;4992621;28;20046;-63
2022/11/11 10:00:14;;;;;;;1.70;0.40;;;;;;;11.92;100.00;102495.56;4992813;28;20426;-63
2022/11/11 10:02:50;;;;;;;2.38;0.30;;;;;;;12.06;100.00;102496.41;4993264;28;20038;-63
2022/11/11 10:05:26;;;;;;;0.98;0.30;;;;;;;12.10;100.00;102485.63;4992507;28;20046;-63
2022/11/11 10:07:58;;;;;;;2.42;0.90;;;;;;;12.13;100.00;102492.44;4992578;28;20073;-63
2022/11/11 10:10:44;;;;;;;2.35;0.47;;;;;;;12.13;100.00;102495.88;4985048;28;20030;-63
2022/11/11 10:13:21;;;;;;;0.98;0.40;;;;;;;12.21;100.00;102488.34;4992169;28;20040;-64
2022/11/11 10:16:14;;;;;;;2.95;0.50;;;;;;;12.19;100.00;102482.41;4992750;28;20473;-63
2022/11/11 10:18:49;;;;;;;1.30;0.30;;;;;;;12.27;100.00;102480.09;4987288;28;20034;-63
2022/11/11 10:21:21;;;;;;;1.13;0.20;;;;;;;12.34;100.00;102490.94;4984226;28;20050;-63
2022/11/11 10:23:49;;;;;;;0.80;0.30;;;;;;;12.39;100.00;102480.16;4992699;28;20030;-63
2022/11/11 10:26:21;;;;;;;2.05;0.30;;;;;;;12.40;100.00;102476.59;4992078;28;20121;-63
2022/11/11 10:28:49;;;;;;;2.38;0.20;;;;;;;12.50;100.00;102472.41;4992634;28;20058;-63
2022/11/11 10:31:19;;;;;;;2.15;0.30;;;;;;;12.53;100.00;102464.34;4991845;28;20042;-64
2022/11/11 10:34:03;;;;;;;2.65;0.40;;;;;;;12.48;100.00;102467.28;4992527;28;20161;-64
2022/11/11 10:36:29;;;;;;;0.50;0.28;;;;;;;12.49;100.00;102462.88;4985323;28;20034;-64
2022/11/11 10:38:58;;;;;;;0.50;0.20;;;;;;;12.58;100.00;102460.47;4991733;28;20035;-64
2022/11/11 10:41:45;;;;;;;1.33;0.20;;;;;;;12.66;100.00;102459.06;4992305;28;20496;-63
2022/11/11 10:44:30;;;;;;;1.73;0.20;;;;;;;12.70;100.00;102458.75;4991409;28;20129;-63
2022/11/11 10:47:14;;;;;;;1.83;0.20;;;;;;;12.79;100.00;102459.84;4991590;28;20066;-63
2022/11/11 10:49:54;;;;;;;0.50;0.20;;;;;;;12.85;100.00;102454.16;5007257;28;20045;-63
2022/11/11 10:52:35;;;;;;;1.25;0.20;;;;;;;12.75;100.00;102448.78;4991568;28;20026;-62
2022/11/11 10:55:06;;;;;;;2.13;0.20;;;;;;;12.86;100.00;102448.81;4991308;28;20023;-63
2022/11/11 10:57:45;;;;;;;0.60;0.30;;;;;;;12.85;100.00;102454.16;4992143;28;20120;-63
2022/11/11 11:00:13;;;;;;;1.90;0.20;;;;;;;13.02;100.00;102451.16;4991715;28;20129;-63
2022/11/11 11:02:50;;;;;;;3.42;0.40;;;;;;;13.00;100.00;102453.06;4990894;28;20050;-63
2022/11/11 11:05:24;;;;;;;3.70;0.32;;;;;;;13.01;100.00;102448.66;4991485;28;20031;-63
2022/11/11 11:07:54;;;;;;;3.70;0.47;;;;;;;13.01;100.00;102449.50;4991547;28;20050;-64
2022/11/11 11:10:25;;;;;;;1.88;0.25;;;;;;;13.09;100.00;102455.00;4991439;28;20033;-63
2022/11/11 11:12:59;;;;;;;3.35;0.20;;;;;;;13.16;100.00;102448.41;4991940;28;20061;-64
2022/11/11 11:15:28;;;;;;;0.40;0.20;;;;;;;13.23;100.00;102448.81;4983572;28;20023;-63
2022/11/11 11:18:03;;;;;;;0.93;0.20;;;;;;;13.25;100.00;102450.31;4989245;28;20113;-63
2022/11/11 11:20:29;;;;;;;0.57;0.20;;;;;;;13.23;100.00;102439.13;4984883;28;20037;-63
2022/11/11 11:22:58;;;;;;;3.92;0.30;;;;;;;13.20;100.00;102444.63;4987254;28;20420;-64
2022/11/11 11:25:24;;;;;;;0.73;0.30;;;;;;;13.25;100.00;102452.13;4986214;28;20026;-63
2022/11/11 11:27:52;;;;;;;1.40;0.20;;;;;;;13.28;100.00;102444.88;4988291;28;20477;-63
2022/11/11 11:30:23;;;;;;;0.93;0.13;;;;;;;13.29;100.00;102453.56;4984885;28;20034;-63
2022/11/11 11:33:00;;;;;;;0.40;0.13;;;;;;;13.33;100.00;102443.69;4985186;28;20493;-63
2022/11/11 11:35:35;;;;;;;0.55;0.17;;;;;;;13.34;100.00;102440.97;4988956;28;20030;-63
2022/11/11 11:38:01;;;;;;;;;;;;;;;13.35;100.00;102437.38;4984487;28;20061;-63
2022/11/11 11:40:44;;;;;;;0.50;0.20;;;;;;;13.40;100.00;102439.66;4990181;28;19953;-64
2022/11/11 11:43:31;;;;;;;1.95;0.30;;;;;;;13.45;100.00;102433.16;4986899;28;20037;-63
2022/11/11 11:45:58;;;;;;;1.75;0.10;;;;;;;13.52;100.00;102430.91;4987943;28;20050;-63
2022/11/11 11:48:50;;;;;;;3.47;0.20;;;;;;;13.55;100.00;102428.88;4991108;28;20054;-62
2022/11/11 11:51:42;;;;;;;0.40;0.10;;;;;;;13.52;100.00;102429.13;4985834;28;20050;-63
2022/11/11 11:54:38;;;;;;;1.95;0.20;;;;;;;13.66;100.00;102430.69;4988778;28;20117;-62
2022/11/11 11:57:22;;;;;;;0.80;0.30;;;;;;;13.76;100.00;102425.56;4988570;28;20417;-63
2022/11/11 11:59:58;;;;;;;0.63;0.20;;;;;;;13.78;100.00;102413.19;4988114;28;20027;-63
2022/11/11 12:02:29;;;;;;;1.58;0.20;;;;;;;13.79;100.00;102414.84;4988879;28;20042;-62
2022/11/11 12:05:17;;;;;;;0.50;0.20;;;;;;;13.88;100.00;102414.97;4983711;28;20173;-63
2022/11/11 12:07:43;;;;;;;2.03;0.22;;;;;;;13.97;100.00;102408.19;4986549;28;20054;-63
2022/11/11 12:10:48;;;;;;;0.60;0.20;;;;;;;13.94;100.00;102414.50;4990549;28;20546;-63
2022/11/11 12:13:23;;;;;;;2.08;0.30;;;;;;;14.01;100.00;102403.53;4979683;28;20050;-62
2022/11/11 12:16:03;;;;;;;1.40;0.20;;;;;;;13.99;100.00;102408.06;4990772;28;20038;-63
2022/11/11 12:18:53;;;;;;;2.45;0.28;;;;;;;14.01;100.00;102404.38;4984010;28;20474;-63
2022/11/11 12:21:23;;;;;;;1.88;0.20;;;;;;;14.09;100.00;102404.63;4986003;28;20034;-63
2022/11/11 12:24:20;;;;;;;0.98;0.30;;;;;;;14.12;100.00;102399.13;4980232;28;20062;-62
2022/11/11 12:27:06;;;;;;;0.82;0.20;;;;;;;14.14;100.00;102399.84;5003568;28;20058;-63
2022/11/11 12:30:10;;;;;;;1.48;0.30;;;;;;;14.08;100.00;102395.09;4989193;28;20034;-63
2022/11/11 12:33:23;;;;;;;0.45;0.15;;;;;;;14.05;100.00;102397.13;4978731;28;20042;-63
2022/11/11 12:36:09;;;;;;;2.95;0.20;;;;;;;14.07;100.00;102392.59;4948050;29;20039;-63
2022/11/11 12:38:58;;;;;;;0.98;0.35;;;;;;;14.11;100.00;102392.22;4947326;28;20039;-63
2022/11/11 12:41:41;;;;;;;0.57;0.20;;;;;;;14.22;100.00;102391.34;4949340;28;20073;-63
2022/11/11 12:44:10;;;;;;;3.22;0.40;;;;;;;14.20;100.00;102391.47;4952404;28;20134;-63
2022/11/11 12:46:35;;;;;;;2.83;0.20;;;;;;;14.19;100.00;102387.19;4950737;28;20153;-63
2022/11/11 12:49:38;;;;;;;0.63;0.20;;;;;;;14.24;100.00;102385.03;4949463;28;20062;-63
2022/11/11 12:52:23;;;;;;;0.57;0.17;;;;;;;14.30;100.00;102386.34;4948475;29;20032;-63
2022/11/11 12:55:02;;;;;;;0.60;0.20;;;;;;;14.24;100.00;102384.19;4949272;28;20039;-63